Time;durP1;ratioP1;P1;durP2;ratioP2;P2;SDS_P1;SDS_P2;PMS_P1;PMS_P2;Temp;Humidity;BMP_temperature;BMP_pressure;BME280_temperature;BME280_humidity;BME280_pressure;Samples;Min_cycle;Max_cycle;Signal;HPM_P1;HPM_P2
2022/07/18 00:00:31;;;;;;;;;;;;;;;14.34;58.92;100540.41;5114939;28;19978;-72
2022/07/18 00:02:59;;;;;;;;;;;;;;;14.36;58.80;100538.69;5114715;28;19924;-72
2022/07/18 00:05:28;;;;;;;;;;;;;;;14.60;58.56;100541.19;5114478;28;20018;-72
2022/07/18 00:07:56;;;;;;;;;;;;;;;14.74;58.67;100546.25;5113553;28;19977;-72
2022/07/18 00:10:25;;;;;;;;;;;;;;;14.76;58.33;100544.53;5114443;28;19923;-72
2022/07/18 00:12:54;;;;;;;;;;;;;;;14.68;58.20;100547.13;5114421;28;20337;-72
2022/07/18 00:15:24;;;;;;;;;;;;;;;14.65;58.34;100547.16;5114939;28;19981;-72
2022/07/18 00:17:52;;;;;;;;;;;;;;;14.75;58.24;100550.56;5114689;28;20434;-72
2022/07/18 00:20:22;;;;;;;;;;;;;;;14.84;57.65;100550.50;5114328;28;19976;-72
2022/07/18 00:22:51;;;;;;;;;;;;;;;14.75;57.75;100556.56;5114574;28;20077;-72
2022/07/18 00:25:20;;;;;;;;;;;;;;;14.61;57.86;100554.88;5114220;28;19928;-73
2022/07/18 00:27:49;;;;;;;;;;;;;;;14.67;57.86;100555.72;5116456;28;19951;-72
2022/07/18 00:30:17;;;;;;;;;;;;;;;14.82;57.82;100544.53;5118495;28;19923;-72
2022/07/18 00:32:47;;;;;;;;;;;;;;;14.96;57.63;100552.16;5118247;28;19923;-72
2022/07/18 00:35:16;;;;;;;;;;;;;;;14.97;57.53;100551.31;5118427;28;19931;-73
2022/07/18 00:37:44;;;;;;;;;;;;;;;14.88;57.33;100548.75;5118652;28;19985;-71
2022/07/18 00:40:12;;;;;;;;;;;;;;;14.71;57.62;100547.13;5118270;28;19963;-72
2022/07/18 00:42:41;;;;;;;;;;;;;;;14.62;57.95;100557.44;5118204;28;20381;-72
2022/07/18 00:45:10;;;;;;;;;;;;;;;14.53;58.05;100557.47;5118052;28;19928;-72
2022/07/18 00:47:39;;;;;;;;;;;;;;;14.62;58.27;100556.56;5118147;28;19924;-72
2022/07/18 00:50:09;;;;;;;;;;;;;;;14.56;58.55;100557.47;5118116;28;20377;-72
2022/07/18 00:52:38;;;;;;;;;;;;;;;14.56;58.74;100560.03;5118435;28;19931;-72
2022/07/18 00:55:07;;;;;;;;;;;;;;;14.64;58.79;100554.84;5117968;28;19923;-73
2022/07/18 00:57:36;;;;;;;;;;;;;;;14.67;58.15;100555.72;5117926;28;19924;-72
2022/07/18 01:02:44;;;;;;;;;;;;;;;14.50;58.33;100564.31;5117891;28;20377;-72
2022/07/18 01:05:13;;;;;;;;;;;;;;;14.30;58.78;100566.91;5116471;28;19923;-71
2022/07/18 01:07:42;;;;;;;;;;;;;;;14.19;59.01;100562.63;5116579;28;20448;-72
2022/07/18 01:10:11;;;;;;;;;;;;;;;14.05;59.53;100558.38;5118008;28;20327;-72
2022/07/18 01:12:40;;;;;;;;;;;;;;;13.89;59.73;100558.41;5118064;28;19923;-71
2022/07/18 01:15:09;;;;;;;;;;;;;;;13.66;60.28;100562.63;5117541;28;19970;-72
2022/07/18 01:17:37;;;;;;;;;;;;;;;13.51;60.71;100549.81;5117859;28;19924;-71
2022/07/18 01:20:06;;;;;;;;;;;;;;;13.44;61.03;100552.34;5117823;28;19993;-72
2022/07/18 01:22:38;;;;;;;;;;;;;;;13.43;61.33;100547.25;5117840;28;20014;-72
2022/07/18 01:25:07;;;;;;;;;;;;;;;13.40;61.32;100545.53;5117649;28;20439;-72
2022/07/18 01:27:36;;;;;;;;;;;;;;;13.41;61.50;100546.38;5117432;28;19923;-72
2022/07/18 01:30:05;;;;;;;;;;;;;;;13.54;61.33;100547.22;5117380;28;19976;-72
2022/07/18 01:32:34;;;;;;;;;;;;;;;13.51;61.07;100540.38;5116933;28;19923;-72
2022/07/18 01:35:02;;;;;;;;;;;;;;;13.63;60.80;100542.13;5117501;28;20301;-71
2022/07/18 01:37:30;;;;;;;;;;;;;;;13.77;60.11;100545.56;5117207;28;19928;-72
2022/07/18 01:40:00;;;;;;;;;;;;;;;13.88;59.87;100554.97;5117154;28;19930;-72
2022/07/18 01:42:29;;;;;;;;;;;;;;;13.84;59.70;100554.97;5117468;28;19930;-72
2022/07/18 01:44:57;;;;;;;;;;;;;;;13.64;60.16;100556.66;5117037;28;19924;-72
2022/07/18 01:47:25;;;;;;;;;;;;;;;13.50;60.55;100555.78;5116935;28;19923;-72
2022/07/18 01:49:54;;;;;;;;;;;;;;;13.43;61.20;100560.94;5116940;28;19923;-72
2022/07/18 01:52:23;;;;;;;;;;;;;;;13.52;61.10;100566.91;5116945;28;19969;-71
2022/07/18 01:54:51;;;;;;;;;;;;;;;13.71;60.30;100568.63;5116853;28;19930;-72
2022/07/18 01:57:21;;;;;;;;;;;;;;;13.87;59.45;100560.94;5116783;28;20396;-72
2022/07/18 01:59:50;;;;;;;;;;;;;;;13.98;59.12;100560.94;5116801;28;19930;-72
2022/07/18 02:02:18;;;;;;;;;;;;;;;14.00;58.84;100560.09;5116697;28;19923;-72
2022/07/18 02:07:27;;;;;;;;;;;;;;;13.54;60.25;100562.63;5116972;28;19923;-72
2022/07/18 02:09:56;;;;;;;;;;;;;;;13.43;60.57;100550.66;5116882;28;19923;-72
2022/07/18 02:12:27;;;;;;;;;;;;;;;13.39;60.80;100554.06;5116517;28;19955;-72
2022/07/18 02:14:55;;;;;;;;;;;;;;;13.39;61.46;100561.75;5116793;28;20018;-72
2022/07/18 02:17:24;;;;;;;;;;;;;;;13.44;61.67;100556.63;5116395;28;19924;-72
2022/07/18 02:19:53;;;;;;;;;;;;;;;13.57;61.36;100557.50;5116426;28;19924;-72
2022/07/18 02:22:22;;;;;;;;;;;;;;;13.68;60.37;100555.78;5116358;28;20014;-71
2022/07/18 02:24:51;;;;;;;;;;;;;;;13.77;60.27;100560.97;5116205;28;19924;-71
2022/07/18 02:27:20;;;;;;;;;;;;;;;13.82;59.71;100554.94;5116176;28;19969;-72
2022/07/18 02:29:50;;;;;;;;;;;;;;;13.82;60.06;100554.13;5116143;28;20440;-71
2022/07/18 02:32:19;;;;;;;;;;;;;;;13.85;59.59;100559.22;5116126;28;19977;-71
2022/07/18 02:34:47;;;;;;;;;;;;;;;13.88;59.30;100559.22;5116387;28;19993;-72
2022/07/18 02:37:16;;;;;;;;;;;;;;;13.84;59.51;100567.78;5116262;28;19923;-72
2022/07/18 02:39:44;;;;;;;;;;;;;;;13.89;58.89;100566.09;5115954;28;19973;-72
2022/07/18 02:42:13;;;;;;;;;;;;;;;13.93;58.96;100562.66;5116268;28;19986;-72
2022/07/18 02:44:41;;;;;;;;;;;;;;;13.93;58.59;100563.53;5115785;28;19932;-72
2022/07/18 02:47:11;;;;;;;;;;;;;;;13.95;58.75;100560.94;5116425;28;19931;-72
2022/07/18 02:49:40;;;;;;;;;;;;;;;13.96;58.85;100565.22;5115245;28;20007;-72
2022/07/18 02:52:09;;;;;;;;;;;;;;;13.90;58.71;100567.78;5115802;28;19977;-72
2022/07/18 02:54:39;;;;;;;;;;;;;;;13.87;58.92;100565.22;5116002;28;20011;-72
2022/07/18 02:57:07;;;;;;;;;;;;;;;13.86;59.04;100563.50;5116001;28;19927;-72
2022/07/18 02:59:36;;;;;;;;;;;;;;;13.82;59.55;100559.25;5115836;28;20392;-72
2022/07/18 03:02:04;;;;;;;;;;;;;;;13.81;59.85;100562.66;5115858;28;19992;-72
2022/07/18 03:04:34;;;;;;;;;;;;;;;13.80;59.82;100564.34;5115405;28;19924;-72
2022/07/18 03:07:03;;;;;;;;;;;;;;;13.76;60.35;100564.38;5115546;28;19927;-72
2022/07/18 03:09:31;;;;;;;;;;;;;;;13.72;60.58;100560.09;5115340;28;19950;-72
2022/07/18 03:12:00;;;;;;;;;;;;;;;13.68;60.41;100560.94;5115453;28;20007;-72
2022/07/18 03:14:28;;;;;;;;;;;;;;;13.66;60.71;100562.63;5115301;28;19924;-72
2022/07/18 03:16:57;;;;;;;;;;;;;;;13.66;60.43;100562.63;5115575;28;19927;-72
2022/07/18 03:19:25;;;;;;;;;;;;;;;13.67;60.42;100561.81;5115470;28;19924;-72
2022/07/18 03:21:55;;;;;;;;;;;;;;;13.65;60.28;100568.63;5115457;28;20316;-72
2022/07/18 03:24:24;;;;;;;;;;;;;;;13.60;61.02;100567.78;5115164;28;19924;-72
2022/07/18 03:26:53;;;;;;;;;;;;;;;13.58;61.34;100570.31;5115077;28;19979;-72
2022/07/18 03:29:22;;;;;;;;;;;;;;;13.57;61.37;100565.19;5114947;28;20401;-72
2022/07/18 03:31:50;;;;;;;;;;;;;;;13.63;61.12;100572.91;5114578;28;19923;-72
2022/07/18 03:34:19;;;;;;;;;;;;;;;13.63;60.88;100578.88;5115226;28;20319;-72
2022/07/18 03:36:48;;;;;;;;;;;;;;;13.61;61.07;100578.03;5114888;28;19977;-71
2022/07/18 03:39:18;;;;;;;;;;;;;;;13.63;60.74;100578.06;5115078;28;20388;-73
2022/07/18 03:41:46;;;;;;;;;;;;;;;13.64;60.57;100566.91;5114861;28;19928;-72
2022/07/18 03:44:15;;;;;;;;;;;;;;;13.67;59.81;100572.06;5114890;28;19924;-72
2022/07/18 03:46:44;;;;;;;;;;;;;;;13.72;60.01;100575.50;5114656;28;19969;-72
2022/07/18 03:49:13;;;;;;;;;;;;;;;13.70;60.03;100574.63;5114685;28;19971;-72
2022/07/18 03:51:41;;;;;;;;;;;;;;;13.65;60.28;100572.06;5114700;28;19924;-72
2022/07/18 03:54:10;;;;;;;;;;;;;;;13.65;60.20;100573.78;5114891;28;20418;-72
2022/07/18 03:56:41;;;;;;;;;;;;;;;13.70;60.23;100566.94;5114678;28;19924;-72
2022/07/18 03:59:09;;;;;;;;;;;;;;;13.70;60.13;100567.78;5096396;28;20015;-73
2022/07/18 04:01:38;;;;;;;;;;;;;;;13.73;60.04;100569.47;5113503;28;19977;-72
2022/07/18 04:04:06;;;;;;;;;;;;;;;13.74;60.48;100576.34;5113532;28;19949;-72
2022/07/18 04:06:35;;;;;;;;;;;;;;;13.79;60.42;100579.75;5114241;28;19924;-72
2022/07/18 04:09:03;;;;;;;;;;;;;;;13.89;60.59;100581.50;5115087;28;19927;-72
2022/07/18 04:11:32;;;;;;;;;;;;;;;13.96;60.28;100583.19;5114344;28;19923;-72
2022/07/18 04:14:02;;;;;;;;;;;;;;;13.97;60.30;100574.63;5114762;28;19950;-72
2022/07/18 04:16:30;;;;;;;;;;;;;;;14.06;60.31;100575.47;5114473;28;19923;-72
2022/07/18 04:18:59;;;;;;;;;;;;;;;14.15;60.10;100576.34;5114361;28;19924;-71
2022/07/18 04:21:28;;;;;;;;;;;;;;;14.21;60.09;100574.63;5114279;28;19930;-72
2022/07/18 04:23:56;;;;;;;;;;;;;;;14.36;59.61;100578.91;5114339;28;19927;-72
2022/07/18 04:26:25;;;;;;;;;;;;;;;14.46;59.58;100576.34;5114537;28;20270;-72
2022/07/18 04:28:53;;;;;;;;;;;;;;;14.57;59.59;100579.72;5114596;28;20018;-71
2022/07/18 04:31:23;;;;;;;;;;;;;;;14.72;59.03;100577.13;5114264;28;19924;-72
2022/07/18 04:33:52;;;;;;;;;;;;;;;14.88;58.85;100589.91;5114262;28;19956;-72
2022/07/18 04:36:20;;;;;;;;;;;;;;;14.92;58.32;100573.63;5114582;28;19924;-73
2022/07/18 04:38:49;;;;;;;;;;;;;;;15.03;58.45;100579.56;5114517;28;19959;-72
2022/07/18 04:41:19;;;;;;;;;;;;;;;15.15;58.02;100584.66;5114103;28;19927;-72
2022/07/18 04:43:48;;;;;;;;;;;;;;;15.26;58.11;100582.91;5114215;28;19973;-72
2022/07/18 04:46:16;;;;;;;;;;;;;;;15.34;58.59;100581.97;5114578;28;19977;-72
2022/07/18 04:48:46;;;;;;;;;;;;;;;15.51;58.48;100589.63;5114403;28;19924;-72
2022/07/18 04:51:15;;;;;;;;;;;;;;;15.67;58.07;100586.09;5114383;28;19924;-72
2022/07/18 04:53:43;;;;;;;;;;;;;;;15.88;57.63;100585.91;5114326;28;19927;-72
2022/07/18 04:56:12;;;;;;;;;;;;;;;16.04;57.38;100581.50;5114005;28;19953;-72
2022/07/18 04:58:40;;;;;;;;;;;;;;;16.18;56.70;100578.81;5114285;28;19931;-72
2022/07/18 05:01:08;;;;;;;;;;;;;;;16.31;56.07;100573.56;5114273;28;20282;-71
2022/07/18 05:03:37;;;;;;;;;;;;;;;16.35;55.61;100577.78;5113886;28;19969;-73
2022/07/18 05:06:07;;;;;;;;;;;;;;;16.39;55.15;100576.03;5113882;28;19953;-73
2022/07/18 05:08:36;;;;;;;;;;;;;;;16.47;54.97;100576.81;5113959;28;19923;-73
2022/07/18 05:11:05;;;;;;;;;;;;;;;16.52;54.75;100582.81;5114240;28;19924;-73
2022/07/18 05:13:33;;;;;;;;;;;;;;;16.58;54.60;100578.44;5115591;28;20034;-72
2022/07/18 05:16:02;;;;;;;;;;;;;;;16.65;54.02;100576.66;5117602;28;20014;-72
2022/07/18 05:18:31;;;;;;;;;;;;;;;16.72;53.82;100573.97;5117572;28;19969;-72
2022/07/18 05:20:59;;;;;;;;;;;;;;;16.85;53.74;100577.28;5117637;28;19969;-72
2022/07/18 05:23:29;;;;;;;;;;;;;;;16.96;53.88;100578.03;5116523;28;20289;-73
2022/07/18 05:25:58;;;;;;;;;;;;;;;17.08;53.55;100575.28;5117309;28;19930;-72
2022/07/18 05:28:26;;;;;;;;;;;;;;;17.19;53.24;100565.66;5117713;28;19949;-72
2022/07/18 05:30:55;;;;;;;;;;;;;;;17.27;52.95;100568.16;5117632;28;20430;-73
2022/07/18 05:33:24;;;;;;;;;;;;;;;17.36;52.91;100563.72;5116912;28;19928;-73
2022/07/18 05:35:52;;;;;;;;;;;;;;;17.42;52.53;100561.03;5117264;28;19924;-72
2022/07/18 05:38:21;;;;;;;;;;;;;;;17.50;52.23;100570.38;5117526;28;20377;-73
2022/07/18 05:40:50;;;;;;;;;;;;;;;17.53;52.20;100566.09;5117532;28;20335;-72
2022/07/18 05:43:19;;;;;;;;;;;;;;;17.55;51.98;100558.31;5115916;28;20019;-72
2022/07/18 05:45:47;;;;;;;;;;;;;;;17.57;51.89;100562.56;5117251;28;20293;-73
2022/07/18 05:48:16;;;;;;;;;;;;;;;17.60;51.72;100554.78;5116982;28;20011;-73
2022/07/18 05:50:45;;;;;;;;;;;;;;;17.70;51.52;100552.91;5116094;28;19923;-72
2022/07/18 05:53:14;;;;;;;;;;;;;;;17.83;51.39;100557.84;5117098;28;19967;-72
2022/07/18 05:55:42;;;;;;;;;;;;;;;17.97;51.15;100557.66;5116857;28;19969;-72
2022/07/18 05:58:12;;;;;;;;;;;;;;;18.10;51.00;100574.63;5117494;28;19924;-73
2022/07/18 06:00:41;;;;;;;;;;;;;;;18.23;50.63;100573.56;5116849;28;19930;-73
2022/07/18 06:03:09;;;;;;;;;;;;;;;18.41;51.10;100569.75;5116592;28;20381;-73
2022/07/18 06:05:38;;;;;;;;;;;;;;;18.51;50.58;100567.03;5116973;28;19924;-72
2022/07/18 06:08:07;;;;;;;;;;;;;;;18.46;49.89;100563.66;5116741;28;20283;-74
2022/07/18 06:10:35;;;;;;;;;;;;;;;18.47;49.77;100565.38;5116837;28;19924;-73
2022/07/18 06:13:12;;;;;;;;;;;;;;;18.56;49.82;100565.22;5116850;28;19930;-72
2022/07/18 06:15:41;;;;;;;;;;;;;;;18.66;49.68;100568.47;5116543;28;19929;-74
2022/07/18 06:18:10;;;;;;;;;;;;;;;18.73;49.42;100563.16;5116340;28;20381;-74
2022/07/18 06:20:38;;;;;;;;;;;;;;;18.85;49.02;100558.59;5116321;28;19931;-74
2022/07/18 06:23:07;;;;;;;;;;;;;;;19.00;49.04;100556.56;5116336;28;19924;-72
2022/07/18 06:25:35;;;;;;;;;;;;;;;19.21;48.64;100560.41;5115484;28;20434;-72
2022/07/18 06:28:04;;;;;;;;;;;;;;;19.31;48.52;100561.94;5116153;28;19931;-73
2022/07/18 06:30:33;;;;;;;;;;;;;;;19.39;47.97;100562.63;5115361;28;19927;-73
2022/07/18 06:33:05;;;;;;;;;;;;;;;19.53;48.00;100557.16;5115956;28;20392;-72
2022/07/18 06:35:34;;;;;;;;;;;;;;;19.67;47.77;100555.94;5116394;28;19928;-73
2022/07/18 06:38:02;;;;;;;;;;;;;;;19.81;47.60;100558.19;5116326;28;20442;-73
2022/07/18 06:40:31;;;;;;;;;;;;;;;19.88;47.22;100560.59;5115994;28;19924;-73
2022/07/18 06:43:00;;;;;;;;;;;;;;;20.08;47.01;100567.03;5115834;28;19923;-73
2022/07/18 06:45:29;;;;;;;;;;;;;;;20.23;46.41;100561.50;5116089;28;20383;-73
2022/07/18 06:47:58;;;;;;;;;;;;;;;20.41;45.87;100566.19;5115637;28;19928;-73
2022/07/18 06:50:27;;;;;;;;;;;;;;;20.48;45.68;100565.13;5116361;28;19967;-73
2022/07/18 06:52:55;;;;;;;;;;;;;;;20.61;45.61;100554.34;5115947;28;20293;-72
2022/07/18 06:55:24;;;;;;;;;;;;;;;20.79;45.36;100563.38;5114780;28;20031;-72
2022/07/18 06:57:52;;;;;;;;;;;;;;;21.01;45.19;100548.91;5115656;28;19928;-73
2022/07/18 07:00:20;;;;;;;;;;;;;;;21.21;44.84;100541.38;5115760;28;19924;-73
2022/07/18 07:02:49;;;;;;;;;;;;;;;21.38;44.48;100540.03;5114571;28;20361;-73
2022/07/18 07:05:20;;;;;;;;;;;;;;;21.52;44.06;100527.47;5115729;28;19982;-73
2022/07/18 07:07:49;;;;;;;;;;;;;;;21.67;43.94;100532.16;5115338;28;19938;-73
2022/07/18 07:10:18;;;;;;;;;;;;;;;21.73;43.75;100525.03;5115399;27;19928;-73
2022/07/18 07:12:47;;;;;;;;;;;;;;;21.87;43.38;100527.19;5115262;28;19931;-72
2022/07/18 07:15:16;;;;;;;;;;;;;;;21.90;42.46;100527.09;5115532;28;20289;-73
2022/07/18 07:17:44;;;;;;;;;;;;;;;22.01;42.63;100524.97;5115540;28;19982;-73
2022/07/18 07:20:13;;;;;;;;;;;;;;;22.10;42.32;100529.03;5115599;28;19924;-73
2022/07/18 07:22:44;;;;;;;;;;;;;;;22.24;41.67;100530.25;5115073;28;19931;-72
2022/07/18 07:25:13;;;;;;;;;;;;;;;22.38;40.82;100530.63;5115212;28;19930;-74
2022/07/18 07:27:41;;;;;;;;;;;;;;;22.47;40.16;100532.88;5115000;28;19924;-75
2022/07/18 07:30:11;;;;;;;;;;;;;;;22.55;39.51;100528.25;5115181;28;19966;-73
2022/07/18 07:32:41;;;;;;;;;;;;;;;22.73;39.45;100528.50;5114696;28;19928;-72
2022/07/18 07:35:12;;;;;;;;;;;;;;;22.87;39.47;100529.69;5115240;28;19930;-74
2022/07/18 07:37:40;;;;;;;;;;;;;;;22.96;39.37;100533.72;5114686;28;20014;-73
2022/07/18 07:40:11;;;;;;;;;;;;;;;23.10;39.13;100534.03;5114826;28;19924;-72
2022/07/18 07:42:40;;;;;;;;;;;;;;;23.20;38.60;100530.19;5113373;28;20343;-73
2022/07/18 07:45:09;;;;;;;;;;;;;;;23.19;38.30;100536.28;5115082;28;19931;-73
2022/07/18 07:47:38;;;;;;;;;;;;;;;23.29;38.34;100532.44;5109829;28;19932;-73
2022/07/18 07:50:07;;;;;;;;;;;;;;;23.39;37.87;100525.97;5094813;28;19931;-71
2022/07/18 07:52:37;;;;;;;;;;;;;;;23.50;37.75;100526.41;5094578;28;20019;-74
2022/07/18 07:55:05;;;;;;;;;;;;;;;23.64;37.19;100533.66;5094193;28;19928;-72
2022/07/18 07:57:36;;;;;;;;;;;;;;;23.91;37.48;100527.31;5092993;28;19966;-72
2022/07/18 08:00:06;;;;;;;;;;;;;;;23.99;36.81;100536.50;5094448;28;20018;-73
2022/07/18 08:02:51;;;;;;;;;;;;;;;24.06;36.64;100531.88;5094537;28;19924;-74
2022/07/18 08:05:26;;;;;;;;;;;;;;;24.28;36.83;100539.69;5094405;28;20359;-72
2022/07/18 08:07:54;;;;;;;;;;;;;;;24.32;36.39;100543.84;5094261;28;19928;-74
2022/07/18 08:10:23;;;;;;;;;;;;;;;24.33;35.93;100529.91;5094056;28;19924;-71
2022/07/18 08:12:53;;;;;;;;;;;;;;;24.37;35.23;100534.06;5093949;28;19924;-74
2022/07/18 08:15:21;;;;;;;;;;;;;;;24.54;34.96;100544.63;5094123;28;20018;-72
2022/07/18 08:17:50;;;;;;;;;;;;;;;24.65;34.26;100542.34;5094270;28;19924;-72
2022/07/18 08:20:18;;;;;;;;;;;;;;;24.69;33.26;100543.09;5093994;28;20374;-72
2022/07/18 08:22:53;;;;;;;;;;;;;;;24.65;33.03;100547.59;5093897;28;19959;-74
2022/07/18 08:25:22;;;;;;;;;;;;;;;24.69;33.25;100538.69;5094212;28;20290;-73
2022/07/18 08:27:50;;;;;;;;;;;;;;;24.72;33.08;100538.56;5107550;28;19924;-72
2022/07/18 08:30:20;;;;;;;;;;;;;;;24.81;32.77;100529.50;5112094;28;19924;-72
2022/07/18 08:32:49;;;;;;;;;;;;;;;24.95;32.34;100524.50;5112060;28;20006;-72
2022/07/18 08:35:18;;;;;;;;;;;;;;;24.99;31.58;100526.88;5098535;28;19924;-73
2022/07/18 08:37:46;;;;;;;;;;;;;;;24.99;31.70;100521.66;5093847;28;19933;-72
2022/07/18 08:40:15;;;;;;;;;;;;;;;25.12;31.93;100522.78;5093695;28;19928;-72
2022/07/18 08:42:43;;;;;;;;;;;;;;;25.13;31.69;100513.16;5109931;28;19932;-72
2022/07/18 08:45:33;;;;;;;;;;;;;;;25.18;31.79;100517.28;5104172;28;19931;-71
2022/07/18 08:48:02;;;;;;;;;;;;;;;25.26;31.43;100515.16;5093322;28;19931;-74
2022/07/18 08:50:30;;;;;;;;;;;;;;;25.33;31.56;100509.63;5097396;28;20439;-73
2022/07/18 08:53:00;;;;;;;;;;;;;;;25.37;31.01;100516.38;5097649;28;19924;-72
2022/07/18 08:55:28;;;;;;;;;;;;;;;25.45;30.67;100509.06;5096412;28;19924;-73
2022/07/18 08:57:58;;;;;;;;;;;;;;;25.59;30.11;100506.63;5097825;28;19970;-72
2022/07/18 09:00:48;;;;;;;;;;;;;;;25.80;29.78;100503.78;5097516;28;19924;-73
2022/07/18 09:03:17;;;;;;;;;;;;;;;25.95;29.16;100499.56;5097575;28;19925;-72
2022/07/18 09:05:45;;;;;;;;;;;;;;;26.17;28.64;100494.94;5102364;28;19975;-73
2022/07/18 09:08:15;;;;;;;;;;;;;;;26.25;28.71;100492.75;5097076;28;19924;-72
2022/07/18 09:10:51;;;;;;;;;;;;;;;26.40;28.94;100497.19;5097698;28;20019;-73
2022/07/18 09:13:20;;;;;;;;;;;;;;;26.58;28.82;100488.38;5097557;28;19973;-72
2022/07/18 09:15:59;;;;;;;;;;;;;;;26.73;28.62;100493.72;5097392;28;19932;-73
2022/07/18 09:18:30;;;;;;;;;;;;;;;26.62;28.31;100483.81;5097472;28;19924;-74
2022/07/18 09:21:06;;;;;;;;;;;;;;;26.51;28.38;100486.16;5116202;28;20011;-73
2022/07/18 09:23:35;;;;;;;;;;;;;;;26.54;28.76;100478.97;5098586;28;19924;-73
2022/07/18 09:26:04;;;;;;;;;;;;;;;26.66;28.75;100476.66;5096996;28;20004;-73
2022/07/18 09:28:46;;;;;;;;;;;;;;;26.67;28.75;100475.69;5098100;28;19928;-73
2022/07/18 09:31:35;;;;;;;;;;;;;;;26.66;28.48;100474.03;5100534;28;19931;-72
2022/07/18 09:34:05;;;;;;;;;;;;;;;26.74;28.39;100487.53;5113695;28;19924;-74
2022/07/18 09:36:36;;;;;;;;;;;;;;;26.84;28.45;100480.91;5105911;28;19955;-73
2022/07/18 09:39:16;;;;;;;;;;;;;;;26.57;27.49;100486.69;5107406;28;19924;-72
2022/07/18 09:41:44;;;;;;;;;;;;;;;26.59;28.23;100476.97;5101190;28;19978;-71
2022/07/18 09:44:15;;;;;;;;;;;;;;;26.76;28.91;100481.31;5115189;28;19953;-72
2022/07/18 09:46:58;;;;;;;;;;;;;;;26.78;28.40;100481.25;5117378;28;19923;-73
2022/07/18 09:49:31;;;;;;;;;;;;;;;26.95;27.67;100478.53;5115880;28;19930;-72
2022/07/18 09:52:04;;;;;;;;;;;;;;;27.00;27.11;100471.25;5110255;28;19924;-72
2022/07/18 09:54:36;;;;;;;;;;;;;;;27.00;26.85;100471.25;5097728;28;20441;-73
2022/07/18 09:57:04;;;;;;;;;;;;;;;27.17;27.39;100474.63;5099232;28;19924;-74
2022/07/18 09:59:33;;;;;;;;;;;;;;;27.29;26.71;100473.09;5117339;28;20341;-73
2022/07/18 10:02:01;;;;;;;;;;;;;;;27.32;26.65;100467.69;5113639;28;20395;-74
2022/07/18 10:04:31;;;;;;;;;;;;;;;27.29;26.18;100473.09;5097429;28;20362;-76
2022/07/18 10:07:00;;;;;;;;;;;;;;;27.26;26.11;100468.00;5100660;28;19951;-71
2022/07/18 10:09:28;;;;;;;;;;;;;;;27.47;26.52;100469.47;5096104;28;19977;-74
2022/07/18 10:11:57;;;;;;;;;;;;;;;27.62;26.07;100471.19;5097253;28;20389;-73
2022/07/18 10:14:30;;;;;;;;;;;;;;;27.71;26.07;100475.91;5096316;28;20010;-73
2022/07/18 10:16:59;;;;;;;;;;;;;;;27.93;26.12;100464.97;5096416;28;19928;-72
2022/07/18 10:19:28;;;;;;;;;;;;;;;28.21;25.40;100458.94;5096270;28;19928;-71
2022/07/18 10:21:58;;;;;;;;;;;;;;;28.23;25.23;100464.94;5097206;28;19924;-72
2022/07/18 10:24:27;;;;;;;;;;;;;;;28.15;24.73;100462.78;5095427;28;19981;-74
2022/07/18 10:27:06;;;;;;;;;;;;;;;28.16;24.45;100467.09;5094910;28;20340;-74
2022/07/18 10:29:34;;;;;;;;;;;;;;;28.17;24.79;100455.66;5095757;28;19928;-72
2022/07/18 10:32:04;;;;;;;;;;;;;;;28.16;25.28;100450.50;5095225;28;19931;-72
2022/07/18 10:34:36;;;;;;;;;;;;;;;27.88;24.92;100451.31;5095138;28;19924;-72
2022/07/18 10:37:10;;;;;;;;;;;;;;;27.89;25.06;100456.44;5095655;28;19978;-73
2022/07/18 10:39:39;;;;;;;;;;;;;;;28.06;24.91;100449.38;5095651;28;19927;-72
2022/07/18 10:42:30;;;;;;;;;;;;;;;28.10;24.82;100445.63;5094800;28;19978;-72
2022/07/18 10:44:59;;;;;;;;;;;;;;;28.13;25.04;100445.44;5095810;28;20439;-72
2022/07/18 10:47:29;;;;;;;;;;;;;;;28.12;25.25;100439.31;5095445;28;19924;-70
2022/07/18 10:50:01;;;;;;;;;;;;;;;27.97;25.39;100439.41;5095425;28;19924;-72
2022/07/18 10:52:41;;;;;;;;;;;;;;;28.17;25.61;100431.19;5095729;28;19939;-72
2022/07/18 10:55:20;;;;;;;;;;;;;;;28.36;25.39;100426.50;5095638;28;19935;-73
2022/07/18 10:58:15;;;;;;;;;;;;;;;28.42;25.35;100426.09;5095623;28;19974;-73
2022/07/18 11:00:47;;;;;;;;;;;;;;;28.49;25.46;100425.63;5095439;28;20035;-72
2022/07/18 11:03:16;;;;;;;;;;;;;;;28.41;25.57;100414.75;5095832;28;19985;-69
2022/07/18 11:05:46;;;;;;;;;;;;;;;28.33;25.70;100414.41;5095001;28;19924;-71
2022/07/18 11:08:23;;;;;;;;;;;;;;;28.43;26.22;100412.03;5094224;28;19924;-71
2022/07/18 11:11:02;;;;;;;;;;;;;;;28.57;25.69;100409.38;5094601;28;19931;-74
2022/07/18 11:13:32;;;;;;;;;;;;;;;28.56;25.21;100402.44;5095250;28;20319;-70
2022/07/18 11:16:05;;;;;;;;;;;;;;;28.70;25.53;100399.78;5094957;28;20020;-73
2022/07/18 11:18:34;;;;;;;;;;;;;;;28.65;25.52;100401.88;5095159;28;20079;-71
2022/07/18 11:21:03;;;;;;;;;;;;;;;28.70;26.05;100399.78;5094901;28;19927;-73
2022/07/18 11:23:41;;;;;;;;;;;;;;;28.79;26.16;100393.97;5094397;28;20271;-70
2022/07/18 11:26:15;;;;;;;;;;;;;;;29.10;27.35;100387.56;5094124;28;19924;-73
2022/07/18 11:28:43;;;;;;;;;;;;;;;29.12;27.07;100386.50;5105566;28;19977;-73
2022/07/18 11:31:13;;;;;;;;;;;;;;;29.12;25.86;100378.63;5114951;28;19966;-71
2022/07/18 11:33:45;;;;;;;;;;;;;;;29.26;25.65;100382.13;5103636;28;19963;-71
2022/07/18 11:36:15;;;;;;;;;;;;;;;29.50;26.77;100369.97;5094829;28;19924;-73
2022/07/18 11:38:47;;;;;;;;;;;;;;;29.55;26.75;100367.88;5096700;28;19928;-71
2022/07/18 11:41:16;;;;;;;;;;;;;;;29.60;26.85;100365.78;5098648;28;20393;-74
2022/07/18 11:43:45;;;;;;;;;;;;;;;29.69;26.18;100370.41;5094624;28;19977;-71
2022/07/18 11:46:15;;;;;;;;;;;;;;;29.83;26.37;100357.16;5105548;28;19923;-71
2022/07/18 11:48:45;;;;;;;;;;;;;;;29.98;26.10;100356.09;5094730;28;19924;-72
2022/07/18 11:51:14;;;;;;;;;;;;;;;30.03;25.82;100354.00;5096583;28;20018;-74
2022/07/18 11:53:46;;;;;;;;;;;;;;;29.95;25.92;100350.19;5115046;27;19984;-71
2022/07/18 11:56:14;;;;;;;;;;;;;;;30.02;26.78;100351.47;5120396;27;19931;-71
2022/07/18 11:58:44;;;;;;;;;;;;;;;30.16;27.11;100343.44;5114805;28;19924;-73
2022/07/18 12:01:12;;;;;;;;;;;;;;;30.20;26.93;100351.00;5114527;28;19953;-71
2022/07/18 12:03:44;;;;;;;;;;;;;;;30.18;26.83;100342.38;5114523;28;20373;-72
2022/07/18 12:06:13;;;;;;;;;;;;;;;30.38;27.84;100341.81;5107865;28;20324;-73
2022/07/18 12:08:43;;;;;;;;;;;;;;;30.56;26.82;100341.44;5093692;28;20381;-72
2022/07/18 12:11:14;;;;;;;;;;;;;;;30.80;26.92;100334.38;5093538;28;19924;-72
2022/07/18 12:13:47;;;;;;;;;;;;;;;30.70;26.35;100334.22;5094061;28;19924;-74
2022/07/18 12:16:23;;;;;;;;;;;;;;;30.36;25.47;100327.91;5094390;28;20352;-73
2022/07/18 12:18:54;;;;;;;;;;;;;;;30.30;26.04;100328.34;5094035;28;19924;-71
2022/07/18 12:21:23;;;;;;;;;;;;;;;30.31;25.50;100316.81;5093985;28;19924;-71
2022/07/18 12:23:51;;;;;;;;;;;;;;;30.50;25.41;100317.22;5096112;28;19931;-73
2022/07/18 12:26:31;;;;;;;;;;;;;;;30.66;25.58;100324.84;5097588;28;19935;-73
2022/07/18 12:29:15;;;;;;;;;;;;;;;30.87;26.82;100309.22;5098781;28;19960;-73
2022/07/18 12:31:45;;;;;;;;;;;;;;;30.83;26.77;100313.06;5098203;28;19970;-70
2022/07/18 12:34:15;;;;;;;;;;;;;;;30.77;26.46;100308.22;5097915;28;19971;-71
2022/07/18 12:36:55;;;;;;;;;;;;;;;30.73;26.42;100301.50;5114644;28;20582;-71
2022/07/18 12:39:29;;;;;;;;;;;;;;;30.67;26.09;100315.13;5116583;28;19924;-73
2022/07/18 12:41:58;;;;;;;;;;;;;;;30.50;25.68;100309.28;5118301;28;19924;-71
2022/07/18 12:44:27;;;;;;;;;;;;;;;30.57;26.44;100300.97;5117767;28;19923;-72
2022/07/18 12:46:56;;;;;;;;;;;;;;;30.47;26.00;100298.97;5117671;28;19954;-72
2022/07/18 12:49:26;;;;;;;;;;;;;;;30.36;25.70;100293.66;5116137;28;20388;-72
2022/07/18 12:51:54;;;;;;;;;;;;;;;30.39;25.61;100296.06;5097965;28;19985;-70
2022/07/18 12:54:23;;;;;;;;;;;;;;;30.49;25.92;100297.09;5097946;28;20281;-72